Time;durP1;ratioP1;P1;durP2;ratioP2;P2;SDS_P1;SDS_P2;PMS_P1;PMS_P2;Temp;Humidity;BMP_temperature;BMP_pressure;BME280_temperature;BME280_humidity;BME280_pressure;Samples;Min_cycle;Max_cycle;Signal;HPM_P1;HPM_P2
2022/10/25 00:02:05;;;;;;;;;;;11.30;99.90;;;;;;6130594;23;20243;-77
2022/10/25 00:04:30;;;;;;;;;;;11.40;99.90;;;;;;6130395;23;19917;-77
2022/10/25 00:06:56;;;;;;;;;;;11.40;99.90;;;;;;6130552;23;19916;-77
2022/10/25 00:09:21;;;;;;;;;;;11.40;99.90;;;;;;6130350;23;19948;-78
2022/10/25 00:11:47;;;;;;;;;;;11.50;99.90;;;;;;6129413;23;19917;-77
2022/10/25 00:14:17;;;;;;;;;;;11.50;99.90;;;;;;6154098;23;19917;-78
2022/10/25 00:16:43;;;;;;;;;;;11.60;99.90;;;;;;6154700;23;19991;-78
2022/10/25 00:19:10;;;;;;;;;;;11.70;99.90;;;;;;6130586;23;19921;-78
2022/10/25 00:21:36;;;;;;;;;;;11.70;99.90;;;;;;6130174;23;19921;-77
2022/10/25 00:24:02;;;;;;;;;;;11.70;99.90;;;;;;6130687;23;20228;-78
2022/10/25 00:26:27;;;;;;;;;;;11.80;99.90;;;;;;6130245;23;19916;-78
2022/10/25 00:28:54;;;;;;;;;;;11.80;99.90;;;;;;6130179;23;20274;-78
2022/10/25 00:31:20;;;;;;;;;;;11.80;99.90;;;;;;6159680;23;19920;-78
2022/10/25 00:33:46;;;;;;;;;;;12.10;99.90;;;;;;6135518;23;19917;-78
2022/10/25 00:36:13;;;;;;;;;;;11.80;99.90;;;;;;6160033;23;19920;-77
2022/10/25 00:38:38;;;;;;;;;;;11.80;99.90;;;;;;6159826;23;19917;-78
2022/10/25 00:41:05;;;;;;;;;;;11.80;99.90;;;;;;6137460;23;20270;-77
2022/10/25 00:43:31;;;;;;;;;;;11.80;99.90;;;;;;6162032;23;19927;-77
2022/10/25 00:45:58;;;;;;;;;;;11.80;99.90;;;;;;6137108;23;20328;-77
2022/10/25 00:48:23;;;;;;;;;;;11.80;99.90;;;;;;6162230;23;19920;-78
2022/10/25 00:50:51;;;;;;;;;;;11.80;99.90;;;;;;6137513;23;20350;-78
2022/10/25 00:53:19;;;;;;;;;;;11.80;99.90;;;;;;6136959;23;19924;-77
2022/10/25 00:55:49;;;;;;;;;;;11.80;99.90;;;;;;6137163;23;19916;-78
2022/10/25 00:58:17;;;;;;;;;;;11.90;99.90;;;;;;6136950;23;19986;-77
2022/10/25 01:00:44;;;;;;;;;;;11.80;99.90;;;;;;6137369;23;20350;-77
2022/10/25 01:03:10;;;;;;;;;;;11.90;99.90;;;;;;6162150;23;20355;-77
2022/10/25 01:05:37;;;;;;;;;;;11.90;99.90;;;;;;6137000;23;20251;-77
2022/10/25 01:08:03;;;;;;;;;;;11.90;99.90;;;;;;6161537;23;19916;-77
2022/10/25 01:10:28;;;;;;;;;;;11.90;99.90;;;;;;6137137;23;20282;-77
2022/10/25 01:12:54;;;;;;;;;;;12.00;99.90;;;;;;6137165;23;19916;-79
2022/10/25 01:15:27;;;;;;;;;;;12.00;99.90;;;;;;6136672;23;20378;-78
2022/10/25 01:17:57;;;;;;;;;;;12.00;99.90;;;;;;6161879;23;19917;-78
2022/10/25 01:20:31;;;;;;;;;;;12.00;99.90;;;;;;6136662;23;19988;-77
2022/10/25 01:23:07;;;;;;;;;;;11.90;99.90;;;;;;6161371;23;19939;-76
2022/10/25 01:25:39;;;;;;;;;;;11.90;99.90;;;;;;6136729;23;19922;-78
2022/10/25 01:28:23;;;;;;;;;;;11.90;99.90;;;;;;6136695;23;19923;-78
2022/10/25 01:31:08;;;;;;;;;;;11.90;99.90;;;;;;6137047;23;19987;-78
2022/10/25 01:33:47;;;;;;;;;;;11.90;99.90;;;;;;6136724;23;19926;-78
2022/10/25 01:36:18;;;;;;;;;;;11.90;99.90;;;;;;6136634;23;19944;-77
2022/10/25 01:38:49;;;;;;;;;;;11.90;99.90;;;;;;6136784;23;19926;-78
2022/10/25 01:41:21;;;;;;;;;;;11.90;99.90;;;;;;6136854;23;19944;-78
2022/10/25 01:43:46;;;;;;;;;;;11.90;99.90;;;;;;6136534;23;19916;-77
2022/10/25 01:46:17;;;;;;;;;;;11.90;99.90;;;;;;6137030;23;20319;-76
2022/10/25 01:48:56;;;;;;;;;;;11.90;99.90;;;;;;6161624;23;20368;-77
2022/10/25 01:51:25;;;;;;;;;;;11.90;99.90;;;;;;6136191;23;19939;-78
2022/10/25 01:53:50;;;;;;;;;;;12.00;99.90;;;;;;6161096;23;19923;-76
2022/10/25 01:56:36;;;;;;;;;;;12.00;99.90;;;;;;6136876;23;19920;-77
2022/10/25 01:59:08;;;;;;;;;;;12.00;99.90;;;;;;6135643;23;20357;-77
2022/10/25 02:01:52;;;;;;;;;;;11.90;99.90;;;;;;6136749;23;19929;-77
2022/10/25 02:04:17;;;;;;;;;;;12.00;99.90;;;;;;6136693;23;19916;-78
2022/10/25 02:06:50;;;;;;;;;;;12.00;99.90;;;;;;6136550;23;20476;-77
2022/10/25 02:09:26;;;;;;;;;;;11.90;99.90;;;;;;6137424;23;19916;-77
2022/10/25 02:11:53;;;;;;;;;;;11.90;99.90;;;;;;6161122;23;19989;-78
2022/10/25 02:14:22;;;;;;;;;;;11.90;99.90;;;;;;6136115;23;19987;-78
2022/10/25 02:16:51;;;;;;;;;;;11.90;99.90;;;;;;6136435;23;19940;-77
2022/10/25 02:19:21;;;;;;;;;;;11.90;99.90;;;;;;6136617;23;19916;-77
2022/10/25 02:21:50;;;;;;;;;;;11.80;99.90;;;;;;6136339;23;19920;-77
2022/10/25 02:24:17;;;;;;;;;;;11.80;99.90;;;;;;6112221;23;19917;-78
2022/10/25 02:26:43;;;;;;;;;;;11.90;99.90;;;;;;6160888;23;19920;-77
2022/10/25 02:29:09;;;;;;;;;;;11.80;99.90;;;;;;6136470;23;20403;-78
2022/10/25 02:31:36;;;;;;;;;;;11.80;99.90;;;;;;6131445;23;20312;-78
2022/10/25 02:34:02;;;;;;;;;;;11.80;99.90;;;;;;6131530;23;19923;-78
2022/10/25 02:36:28;;;;;;;;;;;11.90;99.90;;;;;;6131450;23;20320;-78
2022/10/25 02:38:56;;;;;;;;;;;11.90;99.90;;;;;;6131206;23;19995;-77
2022/10/25 02:41:22;;;;;;;;;;;11.90;99.90;;;;;;6155981;23;19921;-77
2022/10/25 02:43:51;;;;;;;;;;;11.90;99.90;;;;;;6131495;23;19917;-77
2022/10/25 02:46:18;;;;;;;;;;;11.90;99.90;;;;;;6131367;23;19940;-77
2022/10/25 02:48:44;;;;;;;;;;;11.80;99.90;;;;;;6155959;23;19920;-77
2022/10/25 02:51:11;;;;;;;;;;;11.90;99.90;;;;;;6131453;23;19995;-78
2022/10/25 02:53:39;;;;;;;;;;;11.80;99.90;;;;;;6131213;23;20256;-78
2022/10/25 02:56:06;;;;;;;;;;;11.70;99.90;;;;;;6130949;23;20331;-77
2022/10/25 02:58:33;;;;;;;;;;;11.70;99.90;;;;;;6131269;23;19917;-78
2022/10/25 03:00:59;;;;;;;;;;;11.70;99.90;;;;;;6155510;23;19960;-78
2022/10/25 03:03:25;;;;;;;;;;;11.70;99.90;;;;;;6131155;23;19967;-78
2022/10/25 03:05:50;;;;;;;;;;;11.60;99.90;;;;;;6131148;23;19916;-78
2022/10/25 03:08:16;;;;;;;;;;;11.50;99.90;;;;;;6131378;23;19987;-78
2022/10/25 03:10:42;;;;;;;;;;;11.50;99.90;;;;;;6131241;23;19920;-77
2022/10/25 03:13:07;;;;;;;;;;;11.50;99.90;;;;;;6131185;23;19939;-77
2022/10/25 03:15:38;;;;;;;;;;;11.50;99.90;;;;;;6130982;23;19936;-78
2022/10/25 03:18:04;;;;;;;;;;;11.50;99.90;;;;;;6155726;23;20347;-78
2022/10/25 03:20:30;;;;;;;;;;;11.50;99.90;;;;;;6155206;23;19960;-77
2022/10/25 03:22:55;;;;;;;;;;;11.50;99.90;;;;;;6131025;23;19917;-78
2022/10/25 03:25:21;;;;;;;;;;;11.40;99.90;;;;;;6131074;23;19967;-78
2022/10/25 03:27:47;;;;;;;;;;;11.40;99.90;;;;;;6155566;23;19916;-77
2022/10/25 03:30:13;;;;;;;;;;;11.40;99.90;;;;;;6130552;23;19917;-78
2022/10/25 03:32:39;;;;;;;;;;;11.30;99.90;;;;;;6130309;23;19921;-78
2022/10/25 03:35:05;;;;;;;;;;;11.30;99.90;;;;;;6131376;23;20244;-78
2022/10/25 03:37:30;;;;;;;;;;;11.30;99.90;;;;;;6131101;23;20323;-77
2022/10/25 03:39:56;;;;;;;;;;;11.40;99.90;;;;;;6131915;23;19920;-77
2022/10/25 03:42:22;;;;;;;;;;;11.30;99.90;;;;;;6159099;23;19904;-77
2022/10/25 03:44:47;;;;;;;;;;;11.30;99.90;;;;;;6158974;23;19909;-78
2022/10/25 03:47:13;;;;;;;;;;;11.30;99.90;;;;;;6159308;23;19921;-78
2022/10/25 03:49:39;;;;;;;;;;;11.20;99.90;;;;;;6152737;23;19952;-78
2022/10/25 03:52:07;;;;;;;;;;;11.10;99.90;;;;;;6130695;23;20342;-77
2022/10/25 03:54:33;;;;;;;;;;;11.20;99.90;;;;;;6130778;23;19932;-78
2022/10/25 03:57:04;;;;;;;;;;;11.20;99.90;;;;;;6131222;23;19952;-77
2022/10/25 03:59:32;;;;;;;;;;;11.20;99.90;;;;;;6130700;23;19952;-78
2022/10/25 04:01:59;;;;;;;;;;;11.20;99.90;;;;;;6155085;23;19992;-78
2022/10/25 04:04:24;;;;;;;;;;;11.20;99.90;;;;;;6130443;23;19916;-77
2022/10/25 04:06:50;;;;;;;;;;;11.20;99.90;;;;;;6130546;23;19916;-77
2022/10/25 04:09:16;;;;;;;;;;;11.40;99.90;;;;;;6154834;23;19923;-77
2022/10/25 04:11:41;;;;;;;;;;;11.30;99.90;;;;;;6130867;23;19921;-78
2022/10/25 04:14:07;;;;;;;;;;;11.20;99.90;;;;;;6130028;23;19923;-78
2022/10/25 04:16:33;;;;;;;;;;;11.10;99.90;;;;;;6130140;23;20105;-77
2022/10/25 04:18:58;;;;;;;;;;;11.20;99.90;;;;;;6154866;23;19916;-77
2022/10/25 04:21:24;;;;;;;;;;;11.10;99.90;;;;;;6130569;23;20243;-77
2022/10/25 04:23:50;;;;;;;;;;;11.10;99.90;;;;;;6155061;23;19917;-78
2022/10/25 04:26:19;;;;;;;;;;;11.10;99.90;;;;;;6129606;23;20332;-78
2022/10/25 04:28:48;;;;;;;;;;;11.00;99.90;;;;;;6130568;23;19917;-77
2022/10/25 04:31:14;;;;;;;;;;;11.00;99.90;;;;;;6133157;23;20355;-77
2022/10/25 04:33:40;;;;;;;;;;;11.00;99.90;;;;;;6134811;23;19917;-78
2022/10/25 04:36:05;;;;;;;;;;;11.00;99.90;;;;;;6134792;23;19923;-78
2022/10/25 04:38:31;;;;;;;;;;;11.00;99.90;;;;;;6134657;23;19920;-78
2022/10/25 04:40:58;;;;;;;;;;;11.10;99.90;;;;;;6135048;23;19920;-77
2022/10/25 04:43:24;;;;;;;;;;;11.00;99.90;;;;;;6135177;23;19966;-78
2022/10/25 04:45:53;;;;;;;;;;;10.90;99.90;;;;;;6134858;23;19917;-78
2022/10/25 04:48:19;;;;;;;;;;;10.90;99.90;;;;;;6135477;23;19987;-77
2022/10/25 04:50:45;;;;;;;;;;;10.90;99.90;;;;;;6160070;23;19923;-77
2022/10/25 04:53:10;;;;;;;;;;;10.90;99.90;;;;;;6135397;23;19916;-76
2022/10/25 04:55:36;;;;;;;;;;;10.90;99.90;;;;;;6134787;23;19916;-78
2022/10/25 04:58:02;;;;;;;;;;;10.80;99.90;;;;;;6135364;23;19916;-78
2022/10/25 05:00:28;;;;;;;;;;;10.80;99.90;;;;;;6135392;23;19920;-77
2022/10/25 05:02:53;;;;;;;;;;;10.80;99.90;;;;;;6134989;23;20361;-77
2022/10/25 05:05:23;;;;;;;;;;;10.80;99.90;;;;;;6134963;23;19916;-77
2022/10/25 05:07:49;;;;;;;;;;;10.80;99.90;;;;;;6159442;23;19916;-78
2022/10/25 05:10:15;;;;;;;;;;;10.80;99.90;;;;;;6135200;23;19963;-78
2022/10/25 05:12:40;;;;;;;;;;;10.80;99.90;;;;;;6135306;23;19920;-77
2022/10/25 05:15:06;;;;;;;;;;;10.60;99.90;;;;;;6135395;23;20042;-77
2022/10/25 05:17:32;;;;;;;;;;;10.70;99.90;;;;;;6135120;23;19916;-76
2022/10/25 05:19:58;;;;;;;;;;;10.70;99.90;;;;;;6159440;23;19928;-78
2022/10/25 05:22:24;;;;;;;;;;;10.70;99.90;;;;;;6134845;23;19986;-77
2022/10/25 05:24:50;;;;;;;;;;;10.60;99.90;;;;;;6135085;23;19916;-77
2022/10/25 05:27:16;;;;;;;;;;;10.70;99.90;;;;;;6136642;23;19924;-78
2022/10/25 05:29:41;;;;;;;;;;;10.70;99.90;;;;;;6137023;23;19920;-77
2022/10/25 05:32:07;;;;;;;;;;;10.70;99.90;;;;;;6136920;23;19927;-78
2022/10/25 05:34:33;;;;;;;;;;;10.70;99.90;;;;;;6136959;23;20228;-77
2022/10/25 05:36:59;;;;;;;;;;;10.70;99.90;;;;;;6136804;23;19916;-77
2022/10/25 05:39:25;;;;;;;;;;;10.70;99.90;;;;;;6136869;23;19939;-78
2022/10/25 05:41:51;;;;;;;;;;;10.80;99.90;;;;;;6136340;23;19959;-78
2022/10/25 05:44:19;;;;;;;;;;;10.70;99.90;;;;;;6136979;23;19939;-77
2022/10/25 05:46:45;;;;;;;;;;;10.80;99.90;;;;;;6136702;23;20319;-79
2022/10/25 05:49:11;;;;;;;;;;;10.90;99.90;;;;;;6136839;23;19916;-78
2022/10/25 05:51:37;;;;;;;;;;;10.90;99.90;;;;;;6136444;23;19916;-77
2022/10/25 05:54:04;;;;;;;;;;;10.90;99.90;;;;;;6161207;23;19917;-77
2022/10/25 05:59:46;;;;;;;;;;;10.90;99.90;;;;;;6161377;23;20311;-76
2022/10/25 06:02:12;;;;;;;;;;;10.90;99.90;;;;;;6136399;23;19916;-74
2022/10/25 06:35:33;;;;;;;;;;;10.60;99.90;;;;;;6055424;23;19924;-79
2022/10/25 06:42:15;;;;;;;;;;;10.60;99.90;;;;;;6156939;23;19999;-79
2022/10/25 07:27:22;;;;;;;;;;;11.40;99.90;;;;;;6167737;23;19920;-76
2022/10/25 07:30:13;;;;;;;;;;;11.50;99.90;;;;;;6135682;23;19963;-76
2022/10/25 07:32:44;;;;;;;;;;;11.50;99.90;;;;;;6136086;23;20000;-75
2022/10/25 07:35:15;;;;;;;;;;;11.60;99.90;;;;;;6135071;23;19949;-78
2022/10/25 07:37:49;;;;;;;;;;;11.70;99.90;;;;;;6130979;23;19932;-78
2022/10/25 07:40:24;;;;;;;;;;;11.70;99.90;;;;;;6137409;23;19928;-77
2022/10/25 09:06:27;;;;;;;;;;;14.30;99.90;;;;;;6209263;23;19904;-76
2022/10/25 09:09:16;;;;;;;;;;;14.30;99.90;;;;;;6161629;23;19924;-74
2022/10/25 09:11:55;;;;;;;;;;;14.30;99.90;;;;;;6136434;23;19974;-76
2022/10/25 09:14:58;;;;;;;;;;;14.40;99.90;;;;;;6135539;23;19916;-77
2022/10/25 09:18:00;;;;;;;;;;;;;;;;;;;;;
2022/10/25 09:20:46;;;;;;;;;;;14.70;99.90;;;;;;6161331;23;19917;-77
2022/10/25 09:23:50;;;;;;;;;;;14.60;99.90;;;;;;6136209;23;20028;-77
2022/10/25 09:26:33;;;;;;;;;;;14.60;99.90;;;;;;6042274;23;20319;-78
2022/10/25 09:29:23;;;;;;;;;;;14.60;99.90;;;;;;6134044;23;19922;-77
2022/10/25 09:32:08;;;;;;;;;;;;;;;;;;;;;
2022/10/25 09:34:42;;;;;;;;;;;14.40;99.90;;;;;;6095922;23;19925;-78
2022/10/25 09:37:22;;;;;;;;;;;14.40;99.90;;;;;;6048241;23;20271;-77
2022/10/25 09:44:17;;;;;;;;;;;14.30;99.90;;;;;;6096385;23;19922;-78
2022/10/25 09:47:23;;;;;;;;;;;14.30;99.90;;;;;;5937192;24;19919;-78
2022/10/25 09:53:18;;;;;;;;;;;14.50;99.90;;;;;;6071731;23;19945;-78
2022/10/25 09:56:16;;;;;;;;;;;14.60;99.90;;;;;;6064867;23;19968;-78
2022/10/25 09:59:06;;;;;;;;;;;14.80;99.90;;;;;;6024058;23;20287;-77
2022/10/25 10:01:51;;;;;;;;;;;14.70;99.90;;;;;;6075169;23;20293;-77
2022/10/25 10:04:57;;;;;;;;;;;14.80;99.90;;;;;;6046748;23;19928;-77
2022/10/25 10:07:37;;;;;;;;;;;14.90;99.90;;;;;;6105724;23;19916;-77
2022/10/25 10:10:33;;;;;;;;;;;15.00;99.90;;;;;;6156454;23;19916;-77
2022/10/25 10:13:23;;;;;;;;;;;14.90;99.90;;;;;;6130022;23;20374;-77
2022/10/25 10:25:48;;;;;;;;;;;14.70;99.90;;;;;;6157371;23;19981;-84
2022/10/25 15:38:07;;;;;;;;;;;14.40;99.90;;;;;;6142664;23;19920;31
2022/10/25 18:19:52;;;;;;;;;;;11.90;99.90;;;;;;6156277;23;19932;-72
2022/10/25 18:23:01;;;;;;;;;;;;;;;;;;;;;
2022/10/25 18:26:16;;;;;;;;;;;;;;;;;;;;;
2022/10/25 18:38:06;;;;;;;;;;;11.70;99.90;;;;;;6202355;23;19916;-78
2022/10/25 18:47:51;;;;;;;;;;;;;;;;;;;;;
2022/10/25 19:01:21;;;;;;;;;;;11.70;99.90;;;;;;5982002;23;19936;-75
2022/10/25 19:04:14;;;;;;;;;;;11.70;99.90;;;;;;6007100;23;19953;-78
2022/10/25 19:10:14;;;;;;;;;;;11.50;99.90;;;;;;5984304;23;19993;-75
2022/10/25 19:41:44;;;;;;;;;;;11.80;99.90;;;;;;6179282;22;19920;-80
2022/10/25 20:16:00;;;;;;;;;;;11.80;99.90;;;;;;6152818;23;19904;-80
2022/10/25 20:28:31;;;;;;;;;;;11.80;99.90;;;;;;5992150;23;19915;-78
2022/10/25 20:31:35;;;;;;;;;;;;;;;;;;;;;
2022/10/25 20:34:25;;;;;;;;;;;11.90;99.90;;;;;;6118221;23;19913;-74
2022/10/25 20:40:36;;;;;;;;;;;11.70;99.90;;;;;;6154574;23;19912;-79
2022/10/25 20:43:02;;;;;;;;;;;11.70;99.90;;;;;;6104404;23;19913;-73
2022/10/25 20:45:33;;;;;;;;;;;11.70;99.90;;;;;;6105017;23;19919;-80
2022/10/25 20:51:08;;;;;;;;;;;11.70;99.90;;;;;;6130042;23;19912;-77
2022/10/25 20:53:55;;;;;;;;;;;11.60;99.90;;;;;;6105396;23;19919;-77
2022/10/25 20:56:38;;;;;;;;;;;11.60;99.90;;;;;;6156516;23;19935;-78
2022/10/25 20:59:04;;;;;;;;;;;11.60;99.90;;;;;;6107245;23;20316;-76
2022/10/25 21:01:30;;;;;;;;;;;11.50;99.90;;;;;;6107615;23;19916;-77
2022/10/25 21:03:55;;;;;;;;;;;11.60;99.90;;;;;;6131379;23;20346;-76
2022/10/25 21:06:21;;;;;;;;;;;11.70;99.90;;;;;;6106993;23;19913;-78
2022/10/25 21:08:47;;;;;;;;;;;11.60;99.90;;;;;;6126769;23;19960;-75
2022/10/25 21:11:12;;;;;;;;;;;11.50;99.90;;;;;;6126189;23;19987;-76
2022/10/25 21:13:38;;;;;;;;;;;11.40;99.90;;;;;;6126556;23;19913;-78
2022/10/25 21:16:22;;;;;;;;;;;11.40;99.90;;;;;;6102204;23;19912;-75
2022/10/25 21:18:48;;;;;;;;;;;11.30;99.90;;;;;;6078130;23;20036;-77
2022/10/25 21:21:16;;;;;;;;;;;11.30;99.90;;;;;;6102588;23;19964;-76
2022/10/25 21:23:43;;;;;;;;;;;11.30;99.90;;;;;;6126273;23;19917;-75
2022/10/25 21:26:09;;;;;;;;;;;11.30;99.90;;;;;;6077937;23;19921;-76
2022/10/25 21:28:38;;;;;;;;;;;11.30;99.90;;;;;;6102440;23;19920;-77
2022/10/25 21:31:09;;;;;;;;;;;11.30;99.90;;;;;;6077056;23;19916;-77
2022/10/25 21:33:34;;;;;;;;;;;11.30;99.90;;;;;;6126676;23;19960;-76
2022/10/25 21:36:01;;;;;;;;;;;11.20;99.90;;;;;;6126485;23;19916;-77
2022/10/25 21:38:26;;;;;;;;;;;11.40;99.90;;;;;;6102102;23;19913;-76
2022/10/25 21:40:52;;;;;;;;;;;11.30;99.90;;;;;;6078508;23;20213;-78
2022/10/25 21:43:24;;;;;;;;;;;11.30;99.90;;;;;;6101901;23;19960;-73
2022/10/25 21:45:57;;;;;;;;;;;11.30;99.90;;;;;;6102340;23;19912;-79
2022/10/25 21:48:23;;;;;;;;;;;11.30;99.90;;;;;;6102890;23;19918;-79
2022/10/25 21:50:53;;;;;;;;;;;11.20;99.90;;;;;;6102994;23;19913;-79
2022/10/25 21:53:22;;;;;;;;;;;11.20;99.90;;;;;;6103683;23;19912;-79
2022/10/25 21:55:48;;;;;;;;;;;11.20;99.90;;;;;;6103237;23;19920;-78
2022/10/25 21:58:13;;;;;;;;;;;11.10;99.90;;;;;;6102751;23;20228;-78
2022/10/25 22:00:44;;;;;;;;;;;10.90;99.90;;;;;;6102967;23;19924;-79
2022/10/25 22:03:13;;;;;;;;;;;11.00;99.90;;;;;;6103397;23;19976;-80
2022/10/25 22:05:42;;;;;;;;;;;10.90;99.90;;;;;;6102423;23;20292;-80
2022/10/25 22:08:08;;;;;;;;;;;10.80;99.90;;;;;;6102099;23;19920;-80
2022/10/25 22:10:34;;;;;;;;;;;10.90;99.90;;;;;;6102325;23;19912;-78
2022/10/25 22:13:02;;;;;;;;;;;10.70;99.90;;;;;;6102956;23;19922;-80
2022/10/25 22:15:28;;;;;;;;;;;10.60;99.90;;;;;;6102534;23;20232;-79
2022/10/25 22:17:54;;;;;;;;;;;10.70;99.90;;;;;;6102686;23;19912;-79
2022/10/25 22:20:22;;;;;;;;;;;10.60;99.90;;;;;;6102269;23;19913;-77
2022/10/25 22:22:51;;;;;;;;;;;10.50;99.90;;;;;;6103321;23;19923;-80
2022/10/25 22:25:16;;;;;;;;;;;10.50;99.90;;;;;;6102534;23;19913;-79
2022/10/25 22:27:50;;;;;;;;;;;10.50;99.90;;;;;;6078164;23;19955;-79
2022/10/25 22:30:19;;;;;;;;;;;10.60;99.90;;;;;;6078446;23;20001;-79
2022/10/25 22:32:44;;;;;;;;;;;10.50;99.90;;;;;;6102458;23;20012;-80
2022/10/25 22:35:10;;;;;;;;;;;10.40;99.90;;;;;;6102291;23;19921;-81
2022/10/25 22:37:41;;;;;;;;;;;10.50;99.90;;;;;;6103023;23;19973;-79
2022/10/25 22:40:07;;;;;;;;;;;10.40;99.90;;;;;;6102336;23;19955;-81
2022/10/25 22:42:32;;;;;;;;;;;10.40;99.90;;;;;;6102357;23;19917;-79
2022/10/25 22:44:58;;;;;;;;;;;10.40;99.90;;;;;;6102205;23;19913;-79
2022/10/25 22:47:24;;;;;;;;;;;10.30;99.90;;;;;;6102103;23;20037;-80
2022/10/25 22:49:49;;;;;;;;;;;10.40;99.90;;;;;;6102250;23;19920;-79
2022/10/25 22:52:15;;;;;;;;;;;10.30;99.90;;;;;;6126601;23;19987;-82
2022/10/25 22:54:41;;;;;;;;;;;10.30;99.90;;;;;;6102375;23;20224;-79
2022/10/25 22:57:06;;;;;;;;;;;10.20;99.90;;;;;;6101874;23;19963;-79
2022/10/25 22:59:32;;;;;;;;;;;10.30;99.90;;;;;;6101813;23;20336;-79
2022/10/25 23:01:58;;;;;;;;;;;10.30;99.90;;;;;;6101991;23;19999;-81
2022/10/25 23:04:23;;;;;;;;;;;10.20;99.90;;;;;;6102099;23;19936;-79
2022/10/25 23:06:49;;;;;;;;;;;10.30;99.90;;;;;;6105027;23;19921;-81
2022/10/25 23:09:15;;;;;;;;;;;10.30;99.90;;;;;;6131540;23;19912;-79
2022/10/25 23:11:40;;;;;;;;;;;10.30;99.90;;;;;;6106623;23;19921;-80
2022/10/25 23:14:08;;;;;;;;;;;10.20;99.90;;;;;;6106383;23;19967;-80
2022/10/25 23:16:37;;;;;;;;;;;10.20;99.90;;;;;;6107299;23;20366;-79
2022/10/25 23:19:05;;;;;;;;;;;10.30;99.90;;;;;;6106587;23;19913;-80
2022/10/25 23:21:32;;;;;;;;;;;10.30;99.90;;;;;;6106798;23;19921;-79
2022/10/25 23:24:10;;;;;;;;;;;10.20;99.90;;;;;;6131139;23;19916;-80
2022/10/25 23:26:36;;;;;;;;;;;10.20;99.90;;;;;;6106792;23;19983;-79
2022/10/25 23:29:02;;;;;;;;;;;10.00;99.90;;;;;;6106889;23;19948;-81
2022/10/25 23:31:29;;;;;;;;;;;10.10;99.90;;;;;;6106646;23;19912;-79
2022/10/25 23:33:55;;;;;;;;;;;10.10;99.90;;;;;;6131159;23;19955;-80
2022/10/25 23:36:22;;;;;;;;;;;10.00;99.90;;;;;;6106174;23;19916;-80
2022/10/25 23:38:49;;;;;;;;;;;10.00;99.90;;;;;;6130985;23;19917;-80
2022/10/25 23:41:16;;;;;;;;;;;10.00;99.90;;;;;;6106478;23;19916;-78
2022/10/25 23:43:42;;;;;;;;;;;10.00;99.90;;;;;;6131133;23;20381;-79
2022/10/25 23:46:08;;;;;;;;;;;10.00;99.90;;;;;;6106710;23;19952;-81
2022/10/25 23:48:36;;;;;;;;;;;10.00;99.90;;;;;;6082702;23;22476;-79
2022/10/25 23:51:06;;;;;;;;;;;9.90;99.90;;;;;;6131234;23;19913;-80
2022/10/25 23:53:32;;;;;;;;;;;9.90;99.90;;;;;;6108032;23;19912;-80
2022/10/25 23:55:58;;;;;;;;;;;10.00;99.90;;;;;;6118632;23;19955;-79
2022/10/25 23:58:26;;;;;;;;;;;10.00;99.90;;;;;;6134755;23;19944;-79
